Time;durP1;ratioP1;P1;durP2;ratioP2;P2;SDS_P1;SDS_P2;PMS_P1;PMS_P2;Temp;Humidity;BMP_temperature;BMP_pressure;BME280_temperature;BME280_humidity;BME280_pressure;Samples;Min_cycle;Max_cycle;Signal;HPM_P1;HPM_P2
2023/09/07 00:00:39;;;;;;;7.63;6.93;;;17.70;99.90;;;;;;5072908;28;20170;-71
2023/09/07 00:03:05;;;;;;;8.30;7.50;;;17.70;99.90;;;;;;5072581;28;20539;-70
2023/09/07 00:05:31;;;;;;;8.23;7.33;;;17.60;99.90;;;;;;5072910;28;20170;-70
2023/09/07 00:07:57;;;;;;;8.30;7.50;;;17.60;99.90;;;;;;5072519;28;20745;-71
2023/09/07 00:10:23;;;;;;;8.40;7.00;;;17.60;99.90;;;;;;5072757;28;20162;-71
2023/09/07 00:12:49;;;;;;;10.27;7.60;;;17.50;99.90;;;;;;5072220;28;20603;-71
2023/09/07 00:15:14;;;;;;;8.13;7.33;;;17.50;99.90;;;;;;5072630;28;20249;-71
2023/09/07 00:17:40;;;;;;;8.87;7.97;;;17.40;99.90;;;;;;5072380;28;20198;-70
2023/09/07 00:20:15;;;;;;;7.57;6.80;;;17.30;99.90;;;;;;5072495;28;20639;-70
2023/09/07 00:22:40;;;;;;;10.67;7.87;;;17.40;99.90;;;;;;5072103;28;20173;-71
2023/09/07 00:25:06;;;;;;;8.17;7.03;;;17.30;99.90;;;;;;5072489;28;20181;-70
2023/09/07 00:27:35;;;;;;;9.37;7.30;;;17.30;99.90;;;;;;5072215;28;20209;-70
2023/09/07 00:30:02;;;;;;;8.50;7.10;;;17.20;99.90;;;;;;5072295;28;20178;-71
2023/09/07 00:32:27;;;;;;;8.37;7.33;;;17.20;99.90;;;;;;5071855;28;20593;-71
2023/09/07 00:34:53;;;;;;;7.37;6.67;;;17.20;99.90;;;;;;5072352;28;20202;-71
2023/09/07 00:37:18;;;;;;;9.33;8.43;;;17.20;99.90;;;;;;5072107;28;20221;-70
2023/09/07 00:39:44;;;;;;;10.83;7.97;;;17.10;99.90;;;;;;5072059;28;20639;-71
2023/09/07 00:42:10;;;;;;;8.10;7.30;;;17.10;99.90;;;;;;5071691;28;20178;-70
2023/09/07 00:44:35;;;;;;;9.10;7.57;;;17.10;99.90;;;;;;5072007;28;20674;-70
2023/09/07 00:47:01;;;;;;;8.33;7.47;;;17.00;99.90;;;;;;5071962;28;20210;-71
2023/09/07 00:49:27;;;;;;;9.43;7.93;;;17.00;99.90;;;;;;5071941;28;20253;-70
2023/09/07 00:51:53;;;;;;;11.40;8.43;;;17.00;99.90;;;;;;5071557;28;20194;-70
2023/09/07 00:54:19;;;;;;;10.87;7.50;;;16.90;99.90;;;;;;5071887;28;20181;-71
2023/09/07 00:56:45;;;;;;;10.00;8.17;;;16.90;99.90;;;;;;5071897;28;20654;-71
2023/09/07 00:59:13;;;;;;;9.70;8.13;;;16.90;99.90;;;;;;5072052;28;20178;-71
2023/09/07 01:01:38;;;;;;;10.93;8.53;;;16.90;99.90;;;;;;5071500;28;20170;-71
2023/09/07 01:04:04;;;;;;;11.30;8.63;;;16.80;99.90;;;;;;5071571;28;20223;-70
2023/09/07 01:06:35;;;;;;;9.67;8.50;;;16.80;99.90;;;;;;5071815;28;20198;-71
2023/09/07 01:09:12;;;;;;;12.10;9.10;;;16.80;99.90;;;;;;5071680;28;20174;-70
2023/09/07 01:11:38;;;;;;;11.47;9.23;;;16.80;99.90;;;;;;5071385;28;20574;-70
2023/09/07 01:14:04;;;;;;;9.10;7.93;;;16.70;99.90;;;;;;5071589;28;20254;-70
2023/09/07 01:16:33;;;;;;;8.67;7.77;;;16.80;99.90;;;;;;5070212;28;20285;-71
2023/09/07 01:19:00;;;;;;;10.10;8.57;;;16.70;99.90;;;;;;5071624;28;20178;-71
2023/09/07 01:21:27;;;;;;;11.07;8.90;;;16.70;99.90;;;;;;5070782;28;20606;-70
2023/09/07 01:23:55;;;;;;;10.13;8.87;;;16.70;99.90;;;;;;5071646;28;20166;-70
2023/09/07 01:26:20;;;;;;;9.47;8.57;;;16.70;99.90;;;;;;5070026;28;20236;-71
2023/09/07 01:28:46;;;;;;;9.13;8.23;;;16.70;99.90;;;;;;5070236;28;20204;-71
2023/09/07 01:31:12;;;;;;;9.37;8.17;;;16.70;99.90;;;;;;5071425;28;20177;-70
2023/09/07 01:33:37;;;;;;;11.30;8.97;;;16.70;99.90;;;;;;5071195;28;20170;-71
2023/09/07 01:36:03;;;;;;;10.30;8.63;;;16.60;99.90;;;;;;5071397;28;20179;-70
2023/09/07 01:38:29;;;;;;;11.53;8.67;;;16.60;99.90;;;;;;5071252;28;20686;-70
2023/09/07 01:40:55;;;;;;;10.03;8.90;;;16.60;99.90;;;;;;5071391;28;20170;-70
2023/09/07 01:43:20;;;;;;;9.40;8.50;;;16.60;99.90;;;;;;5071115;28;20166;-71
2023/09/07 01:45:46;;;;;;;10.10;8.90;;;16.60;99.90;;;;;;5071288;28;20181;-70
2023/09/07 01:48:13;;;;;;;13.83;8.33;;;16.60;99.90;;;;;;5071149;28;20485;-71
2023/09/07 01:50:39;;;;;;;14.53;8.43;;;16.70;99.90;;;;;;5071394;28;20171;-71
2023/09/07 01:53:05;;;;;;;8.97;8.07;;;16.70;99.90;;;;;;5070978;28;20166;-70
2023/09/07 01:55:31;;;;;;;8.60;7.80;;;16.70;99.90;;;;;;5071245;28;20249;-71
2023/09/07 01:57:57;;;;;;;9.20;8.30;;;16.80;99.90;;;;;;5070999;28;20309;-71
2023/09/07 02:00:23;;;;;;;9.77;8.23;;;16.70;99.90;;;;;;5071136;28;20249;-71
2023/09/07 02:02:48;;;;;;;8.97;7.80;;;16.80;99.90;;;;;;5069604;28;20170;-71
2023/09/07 02:05:14;;;;;;;8.83;8.00;;;16.80;99.90;;;;;;5071315;28;20179;-71
2023/09/07 02:07:39;;;;;;;9.43;8.27;;;16.80;99.90;;;;;;5071030;28;20208;-71
2023/09/07 02:10:06;;;;;;;10.80;7.80;;;16.80;99.90;;;;;;5071016;28;20167;-70
2023/09/07 02:12:31;;;;;;;8.80;7.43;;;16.70;99.90;;;;;;5070530;28;20170;-70
2023/09/07 02:15:00;;;;;;;9.53;8.40;;;16.70;99.90;;;;;;5071189;28;20182;-70
2023/09/07 02:17:25;;;;;;;9.00;8.10;;;16.70;99.90;;;;;;5071065;28;20681;-70
2023/09/07 02:19:51;;;;;;;8.90;8.00;;;16.60;99.90;;;;;;5071065;28;20257;-70
2023/09/07 02:22:17;;;;;;;8.53;7.70;;;16.70;99.90;;;;;;5072358;28;20231;-70
2023/09/07 02:24:42;;;;;;;10.10;7.57;;;16.60;99.90;;;;;;5075079;28;20716;-70
2023/09/07 02:27:08;;;;;;;9.13;8.23;;;16.60;99.90;;;;;;5074748;28;20198;-71
2023/09/07 02:29:33;;;;;;;9.53;7.93;;;16.50;99.90;;;;;;5074741;28;20174;-70
2023/09/07 02:31:59;;;;;;;9.20;8.30;;;16.40;99.90;;;;;;5072997;28;20235;-70
2023/09/07 02:34:24;;;;;;;9.30;8.40;;;16.40;99.90;;;;;;5074690;28;20173;-70
2023/09/07 02:36:50;;;;;;;10.73;9.33;;;16.40;99.90;;;;;;5074801;28;20198;-70
2023/09/07 02:39:17;;;;;;;9.20;8.30;;;16.30;99.90;;;;;;5074701;28;20648;-70
2023/09/07 02:41:42;;;;;;;9.70;8.57;;;16.30;99.90;;;;;;5074292;28;20170;-70
2023/09/07 02:44:08;;;;;;;10.77;9.20;;;16.30;99.90;;;;;;5073093;28;20185;-70
2023/09/07 02:46:34;;;;;;;12.13;9.37;;;16.30;99.90;;;;;;5072940;28;20293;-70
2023/09/07 02:49:00;;;;;;;10.60;9.13;;;16.20;99.90;;;;;;5074652;28;20198;-70
2023/09/07 02:51:26;;;;;;;10.10;9.03;;;16.20;99.90;;;;;;5074297;28;20240;-70
2023/09/07 02:53:53;;;;;;;10.43;9.40;;;16.20;99.90;;;;;;5074229;28;20265;-70
2023/09/07 02:56:18;;;;;;;9.47;8.47;;;16.20;99.90;;;;;;5074150;28;20224;-70
2023/09/07 02:58:45;;;;;;;9.40;8.50;;;16.10;99.90;;;;;;5074035;28;20194;-70
2023/09/07 03:01:11;;;;;;;9.60;8.70;;;16.10;99.90;;;;;;5074190;28;20639;-70
2023/09/07 03:03:37;;;;;;;9.83;8.93;;;16.10;99.90;;;;;;5073847;28;20177;-70
2023/09/07 03:06:10;;;;;;;9.73;8.80;;;16.00;99.90;;;;;;5072733;28;20612;-70
2023/09/07 03:08:36;;;;;;;10.00;8.27;;;16.00;99.90;;;;;;5074204;28;20201;-70
2023/09/07 03:11:06;;;;;;;10.00;8.67;;;16.00;99.90;;;;;;5074230;28;20174;-71
2023/09/07 03:13:32;;;;;;;12.90;8.57;;;16.00;99.90;;;;;;5073658;28;20181;-70
2023/09/07 03:15:58;;;;;;;10.07;8.87;;;16.00;99.90;;;;;;5074006;28;20179;-70
2023/09/07 03:18:23;;;;;;;14.07;8.57;;;16.00;99.90;;;;;;5073826;28;20229;-70
2023/09/07 03:20:55;;;;;;;10.33;8.53;;;16.10;99.90;;;;;;5072732;28;20186;-70
2023/09/07 03:23:21;;;;;;;9.53;8.33;;;16.10;99.90;;;;;;5073813;28;20235;-70
2023/09/07 03:25:47;;;;;;;10.13;9.03;;;16.00;99.90;;;;;;5073739;28;20177;-70
2023/09/07 03:28:13;;;;;;;10.40;9.17;;;16.00;99.90;;;;;;5073507;28;20210;-70
2023/09/07 03:30:38;;;;;;;10.53;9.43;;;16.00;99.90;;;;;;5073691;28;20178;-70
2023/09/07 03:33:05;;;;;;;9.87;8.87;;;16.00;99.90;;;;;;5073192;28;20212;-70
2023/09/07 03:35:31;;;;;;;9.80;8.37;;;15.90;99.90;;;;;;5073676;28;20176;-70
2023/09/07 03:37:56;;;;;;;9.77;8.50;;;15.90;99.90;;;;;;5072219;28;20722;-70
2023/09/07 03:40:22;;;;;;;13.40;9.53;;;15.80;99.90;;;;;;5073631;28;20208;-70
2023/09/07 03:42:48;;;;;;;9.90;8.90;;;15.80;99.90;;;;;;5073070;28;20196;-70
2023/09/07 03:45:13;;;;;;;9.67;8.57;;;15.70;99.90;;;;;;5073457;28;20200;-70
2023/09/07 03:47:39;;;;;;;11.20;8.80;;;15.70;99.90;;;;;;5073227;28;20467;-70
2023/09/07 03:50:05;;;;;;;13.50;9.03;;;15.70;99.90;;;;;;5073257;28;20177;-70
2023/09/07 03:52:31;;;;;;;9.27;8.30;;;15.70;99.90;;;;;;5072922;28;20265;-70
2023/09/07 03:54:57;;;;;;;10.37;8.50;;;15.70;99.90;;;;;;5073207;28;20261;-70
2023/09/07 03:57:24;;;;;;;11.63;8.60;;;15.70;99.90;;;;;;5073039;28;20245;-70
2023/09/07 03:59:50;;;;;;;9.60;8.70;;;15.70;99.90;;;;;;5073289;28;20512;-70
2023/09/07 04:02:17;;;;;;;8.67;7.87;;;15.70;99.90;;;;;;5072651;28;20170;-71
2023/09/07 04:04:44;;;;;;;10.50;8.00;;;15.70;99.90;;;;;;5072918;28;20209;-71
2023/09/07 04:07:09;;;;;;;9.93;7.53;;;15.60;99.90;;;;;;5072894;28;20201;-71
2023/09/07 04:09:35;;;;;;;8.43;7.53;;;15.60;99.90;;;;;;5072856;28;20170;-72
2023/09/07 04:12:00;;;;;;;9.50;8.50;;;15.60;99.90;;;;;;5071338;28;20224;-71
2023/09/07 04:14:28;;;;;;;8.93;8.13;;;15.60;99.90;;;;;;5071504;28;20209;-71
2023/09/07 04:16:53;;;;;;;11.63;7.83;;;15.70;99.90;;;;;;5072709;28;20198;-71
2023/09/07 04:19:19;;;;;;;9.50;8.60;;;15.70;99.90;;;;;;5072832;28;20177;-71
2023/09/07 04:21:44;;;;;;;8.57;7.77;;;15.70;99.90;;;;;;5071758;28;20261;-70
2023/09/07 04:24:10;;;;;;;10.33;7.80;;;15.70;99.90;;;;;;5072553;28;20185;-71
2023/09/07 04:26:37;;;;;;;9.10;8.20;;;15.70;99.90;;;;;;5072547;28;20202;-71
2023/09/07 04:29:03;;;;;;;8.80;7.70;;;15.70;99.90;;;;;;5072529;28;20181;-71
2023/09/07 04:31:29;;;;;;;9.03;8.03;;;15.70;99.90;;;;;;5072313;28;20564;-71
2023/09/07 04:33:55;;;;;;;9.83;7.47;;;15.70;99.90;;;;;;5072322;28;20170;-70
2023/09/07 04:36:20;;;;;;;9.87;8.13;;;15.80;99.90;;;;;;5072210;28;20265;-71
2023/09/07 04:38:46;;;;;;;8.73;7.63;;;15.80;99.90;;;;;;5072083;28;20244;-72
2023/09/07 04:41:12;;;;;;;8.63;7.83;;;15.80;99.90;;;;;;5072249;28;20189;-71
2023/09/07 04:43:45;;;;;;;12.93;7.50;;;15.80;99.90;;;;;;5071787;28;20236;-71
2023/09/07 04:46:12;;;;;;;8.20;7.47;;;15.80;99.90;;;;;;5071624;28;20531;-72
2023/09/07 04:48:38;;;;;;;8.40;7.50;;;15.90;99.90;;;;;;5071886;28;20198;-71
2023/09/07 04:51:05;;;;;;;7.87;7.17;;;15.90;99.90;;;;;;5072070;28;20177;-72
2023/09/07 04:53:34;;;;;;;10.70;8.53;;;15.90;99.90;;;;;;5071695;28;20636;-72
2023/09/07 04:56:01;;;;;;;10.00;8.47;;;15.90;99.90;;;;;;5070642;28;20204;-71
2023/09/07 04:58:27;;;;;;;8.50;7.57;;;16.00;99.90;;;;;;5072099;28;20673;-71
2023/09/07 05:00:53;;;;;;;11.53;7.97;;;16.00;99.90;;;;;;5071682;28;20190;-71
2023/09/07 05:03:18;;;;;;;8.67;7.77;;;15.90;99.90;;;;;;5070271;28;20182;-71
2023/09/07 05:05:44;;;;;;;8.40;7.60;;;16.00;99.90;;;;;;5071624;28;20682;-71
2023/09/07 05:08:10;;;;;;;10.57;7.90;;;15.90;99.90;;;;;;5071434;28;20206;-71
2023/09/07 05:10:36;;;;;;;10.27;8.30;;;15.90;99.90;;;;;;5071588;28;20180;-72
2023/09/07 05:13:02;;;;;;;8.73;7.83;;;15.90;99.90;;;;;;5071376;28;20232;-71
2023/09/07 05:15:28;;;;;;;10.37;8.53;;;15.90;99.90;;;;;;5071696;28;20582;-72
2023/09/07 05:17:54;;;;;;;11.40;8.40;;;15.90;99.90;;;;;;5070885;28;20255;-71
2023/09/07 05:20:20;;;;;;;10.23;8.93;;;15.80;99.90;;;;;;5071577;28;20470;-71
2023/09/07 05:22:46;;;;;;;9.23;7.50;;;15.80;99.90;;;;;;5071173;28;20170;-71
2023/09/07 05:25:12;;;;;;;8.90;7.87;;;15.90;99.90;;;;;;5071630;28;20173;-71
2023/09/07 05:27:38;;;;;;;9.70;8.70;;;15.90;99.90;;;;;;5071246;28;20713;-71
2023/09/07 05:30:05;;;;;;;11.37;9.37;;;15.90;99.90;;;;;;5071665;28;20197;-71
2023/09/07 05:32:31;;;;;;;9.97;8.30;;;16.00;99.90;;;;;;5069742;28;20257;-71
2023/09/07 05:34:56;;;;;;;9.70;8.47;;;16.00;99.90;;;;;;5071471;28;20698;-71
2023/09/07 05:37:22;;;;;;;12.77;8.87;;;16.10;99.90;;;;;;5071457;28;20221;-71
2023/09/07 05:39:48;;;;;;;9.63;8.23;;;16.10;99.90;;;;;;5071391;28;20773;-71
2023/09/07 05:42:14;;;;;;;9.17;8.13;;;16.20;99.90;;;;;;5071016;28;20651;-71
2023/09/07 05:44:40;;;;;;;12.60;8.37;;;16.20;99.90;;;;;;5071591;28;20307;-71
2023/09/07 05:47:06;;;;;;;8.70;7.67;;;16.30;99.90;;;;;;5071344;28;20267;-71
2023/09/07 05:49:31;;;;;;;8.40;7.40;;;16.30;99.90;;;;;;5071420;28;20205;-71
2023/09/07 05:51:57;;;;;;;8.13;7.23;;;16.40;99.90;;;;;;5071142;28;20166;-71
2023/09/07 05:54:22;;;;;;;13.27;7.50;;;16.50;99.90;;;;;;5071723;28;20166;-71
2023/09/07 05:56:48;;;;;;;8.83;7.93;;;16.50;99.90;;;;;;5074477;28;20690;-71
2023/09/07 05:59:14;;;;;;;8.27;7.33;;;16.60;99.90;;;;;;5075973;28;20174;-71
2023/09/07 06:01:39;;;;;;;8.87;7.40;;;16.70;99.90;;;;;;5075601;28;20177;-71
2023/09/07 06:04:06;;;;;;;8.57;7.13;;;16.80;99.90;;;;;;5075860;28;20261;-72
2023/09/07 06:06:32;;;;;;;9.60;7.37;;;16.80;99.90;;;;;;5075635;28;20262;-71
2023/09/07 06:09:00;;;;;;;7.70;6.90;;;16.90;99.90;;;;;;5075536;28;20166;-72
2023/09/07 06:11:26;;;;;;;7.60;6.90;;;17.00;99.90;;;;;;5075186;28;20220;-71
2023/09/07 06:13:51;;;;;;;8.70;7.80;;;17.10;99.90;;;;;;5075360;28;20166;-71
2023/09/07 06:16:17;;;;;;;7.40;6.70;;;17.20;99.90;;;;;;5075106;28;20204;-71
2023/09/07 06:18:44;;;;;;;6.87;6.27;;;17.40;99.90;;;;;;5074864;28;20167;-71
2023/09/07 06:21:09;;;;;;;6.77;6.07;;;17.70;99.90;;;;;;5074941;28;20223;-71
2023/09/07 06:23:35;;;;;;;7.50;5.50;;;18.20;99.90;;;;;;5074593;28;20174;-71
2023/09/07 06:26:01;;;;;;;5.93;5.20;;;18.80;99.90;;;;;;5074876;28;20205;-71
2023/09/07 06:28:27;;;;;;;8.02;5.40;;;19.40;99.90;;;;;;5074581;28;20623;-72
2023/09/07 06:30:52;;;;;;;6.28;5.40;;;19.90;99.90;;;;;;5074660;28;20170;-71
2023/09/07 06:33:18;;;;;;;5.80;5.00;;;20.50;99.90;;;;;;5074739;28;20538;-72
2023/09/07 06:35:44;;;;;;;6.07;5.57;;;21.00;99.90;;;;;;5074618;28;20177;-72
2023/09/07 06:38:09;;;;;;;9.35;5.13;;;21.60;99.90;;;;;;5074472;28;20197;-71
2023/09/07 06:40:35;;;;;;;8.10;4.95;;;22.20;99.90;;;;;;5074379;28;20540;-72
2023/09/07 06:43:05;;;;;;;7.15;4.95;;;22.70;99.90;;;;;;5074003;28;20235;-71
2023/09/07 06:45:34;;;;;;;6.35;5.20;;;23.20;99.90;;;;;;5074488;28;20181;-72
2023/09/07 06:47:59;;;;;;;5.60;4.93;;;23.70;99.90;;;;;;5074235;28;20673;-72
2023/09/07 06:50:25;;;;;;;13.77;6.43;;;24.20;99.90;;;;;;5074373;28;20170;-72
2023/09/07 06:52:51;;;;;;;6.40;4.60;;;24.60;99.90;;;;;;5073906;28;20170;-72
2023/09/07 06:55:16;;;;;;;10.65;7.05;;;25.10;99.90;;;;;;5074261;28;20176;-72
2023/09/07 06:57:42;;;;;;;6.72;5.53;;;25.50;99.90;;;;;;5073997;28;20448;-71
2023/09/07 07:00:08;;;;;;;7.53;5.20;;;26.00;99.90;;;;;;5074143;28;20174;-72
2023/09/07 07:02:34;;;;;;;7.57;4.53;;;26.30;99.90;;;;;;5073636;28;20174;-71
2023/09/07 07:05:00;;;;;;;5.68;4.88;;;26.60;99.90;;;;;;5074018;28;20178;-71
2023/09/07 07:07:26;;;;;;;6.57;4.43;;;26.70;99.90;;;;;;5073236;28;20259;-71
2023/09/07 07:09:52;;;;;;;6.00;4.15;;;26.90;99.90;;;;;;5073799;28;20166;-71
2023/09/07 07:12:19;;;;;;;5.75;5.25;;;27.10;99.90;;;;;;5073645;28;20188;-72
2023/09/07 07:14:44;;;;;;;7.45;5.97;;;27.40;99.90;;;;;;5073757;28;20219;-71
2023/09/07 07:17:10;;;;;;;7.97;5.85;;;27.50;99.90;;;;;;5073843;28;20198;-72
2023/09/07 07:19:35;;;;;;;6.35;4.93;;;27.60;99.90;;;;;;5072308;28;20174;-72
2023/09/07 07:22:01;;;;;;;7.68;5.25;;;27.70;99.90;;;;;;5073263;28;20200;-71
2023/09/07 07:24:27;;;;;;;6.88;5.05;;;27.90;99.90;;;;;;5073550;28;20170;-71
2023/09/07 07:26:52;;;;;;;5.97;4.75;;;28.20;99.90;;;;;;5073725;28;20276;-71
2023/09/07 07:29:18;;;;;;;4.53;4.13;;;28.50;99.90;;;;;;5072462;28;20175;-72
2023/09/07 07:31:44;;;;;;;4.70;4.30;;;28.70;99.90;;;;;;5073266;28;20583;-72
2023/09/07 07:34:09;;;;;;;5.07;4.03;;;28.80;99.90;;;;;;5073471;28;20676;-72
2023/09/07 07:36:35;;;;;;;4.68;4.20;;;28.90;99.90;;;;;;5073492;28;20236;-71
2023/09/07 07:39:03;;;;;;;11.43;4.80;;;29.20;99.90;;;;;;5073523;28;20612;-71
2023/09/07 07:41:29;;;;;;;7.22;4.32;;;29.50;99.90;;;;;;5073178;28;20200;-72
2023/09/07 07:43:54;;;;;;;6.60;4.82;;;29.70;99.90;;;;;;5073436;28;20174;-71
2023/09/07 07:46:20;;;;;;;6.00;4.85;;;29.70;99.90;;;;;;5071715;28;20177;-71
2023/09/07 07:48:45;;;;;;;5.90;4.32;;;29.80;99.90;;;;;;5073183;28;20456;-72
2023/09/07 07:51:11;;;;;;;5.80;3.63;;;30.00;99.90;;;;;;5073096;28;20176;-71
2023/09/07 07:53:37;;;;;;;8.23;4.85;;;30.20;99.90;;;;;;5072774;28;20170;-72
2023/09/07 07:56:03;;;;;;;5.07;4.22;;;30.40;99.90;;;;;;5073051;28;20178;-71
2023/09/07 07:58:29;;;;;;;5.22;4.40;;;30.30;99.90;;;;;;5072736;28;20583;-72
2023/09/07 08:00:57;;;;;;;5.53;3.75;;;29.90;99.90;;;;;;5073212;28;20182;-72
2023/09/07 08:03:23;;;;;;;4.03;3.50;;;30.10;99.90;;;;;;5072687;28;20261;-72
2023/09/07 08:05:49;;;;;;;3.70;3.40;;;30.50;99.90;;;;;;5072865;28;20271;-71
2023/09/07 08:08:15;;;;;;;4.70;3.72;;;30.70;99.90;;;;;;5072944;28;20229;-73
2023/09/07 08:10:41;;;;;;;4.20;3.80;;;31.00;99.90;;;;;;5072750;28;20189;-72
2023/09/07 08:13:07;;;;;;;5.75;4.18;;;31.10;99.90;;;;;;5072634;28;20252;-73
2023/09/07 08:15:34;;;;;;;4.28;3.88;;;31.10;99.90;;;;;;5072792;28;20193;-72
2023/09/07 08:18:00;;;;;;;4.20;3.53;;;31.10;99.90;;;;;;5072681;28;20570;-72
2023/09/07 08:20:26;;;;;;;4.60;3.83;;;31.00;99.90;;;;;;5071490;28;20177;-72
2023/09/07 08:22:52;;;;;;;5.93;3.50;;;31.10;99.90;;;;;;5071195;28;20162;-72
2023/09/07 08:25:18;;;;;;;4.80;4.00;;;31.10;99.90;;;;;;5072445;28;20197;-72
2023/09/07 08:27:45;;;;;;;6.95;3.45;;;31.20;99.90;;;;;;5072300;28;20221;-72
2023/09/07 08:30:17;;;;;;;4.35;3.30;;;31.40;99.90;;;;;;5072629;28;20350;-71
2023/09/07 08:32:44;;;;;;;4.45;3.72;;;31.40;99.90;;;;;;5070711;28;20176;-71
2023/09/07 08:35:12;;;;;;;5.05;3.55;;;31.20;99.90;;;;;;5072428;28;20176;-72
2023/09/07 08:37:41;;;;;;;8.75;5.53;;;31.50;99.90;;;;;;5072237;28;20579;-72
2023/09/07 08:40:07;;;;;;;6.97;4.65;;;31.90;99.90;;;;;;5072419;28;20249;-72
2023/09/07 08:42:36;;;;;;;6.32;4.38;;;32.10;99.90;;;;;;5071836;28;20175;-71
2023/09/07 08:45:06;;;;;;;5.57;4.53;;;32.10;99.90;;;;;;5072303;28;20158;-72
2023/09/07 08:47:36;;;;;;;6.07;3.88;;;32.30;99.90;;;;;;5070726;28;20714;-71
2023/09/07 08:50:04;;;;;;;7.45;3.60;;;32.20;99.90;;;;;;5072311;28;20174;-72
2023/09/07 08:52:29;;;;;;;9.13;4.63;;;31.80;99.90;;;;;;5072136;28;20208;-72
2023/09/07 08:54:58;;;;;;;4.78;4.35;;;31.60;99.90;;;;;;5072142;28;20206;-71
2023/09/07 08:57:24;;;;;;;6.82;4.25;;;31.50;99.90;;;;;;5071858;28;20210;-71
2023/09/07 08:59:50;;;;;;;6.85;3.72;;;31.70;99.90;;;;;;5072438;28;20170;-71
2023/09/07 09:02:16;;;;;;;4.57;4.18;;;32.00;99.90;;;;;;5071908;28;20173;-71
2023/09/07 09:04:42;;;;;;;5.25;4.75;;;32.10;99.90;;;;;;5071798;28;20174;-72
2023/09/07 09:07:08;;;;;;;6.10;4.65;;;32.40;99.90;;;;;;5071732;28;20206;-72
2023/09/07 09:09:33;;;;;;;4.95;4.55;;;32.40;99.90;;;;;;5070566;28;20170;-72
2023/09/07 09:12:12;;;;;;;3.95;3.53;;;32.70;99.90;;;;;;5071518;28;20174;-71
2023/09/07 09:14:41;;;;;;;6.68;4.55;;;32.70;99.90;;;;;;5071562;28;20170;-72
2023/09/07 09:17:12;;;;;;;4.97;4.30;;;32.80;99.90;;;;;;5071662;28;20197;-72
2023/09/07 09:19:38;;;;;;;4.38;3.83;;;32.80;99.90;;;;;;5071637;28;20174;-72
2023/09/07 09:22:03;;;;;;;4.40;4.00;;;32.90;99.90;;;;;;5070802;28;20536;-72
2023/09/07 09:24:35;;;;;;;4.65;4.18;;;32.70;99.90;;;;;;5071502;28;20249;-72
2023/09/07 09:27:01;;;;;;;5.32;4.00;;;32.40;99.90;;;;;;5071631;28;20615;-71
2023/09/07 09:29:27;;;;;;;7.13;4.40;;;32.20;99.90;;;;;;5072309;28;20211;-73
2023/09/07 09:31:53;;;;;;;7.95;4.82;;;31.80;99.90;;;;;;5072033;28;20197;-73
2023/09/07 09:34:20;;;;;;;4.35;4.00;;;31.50;99.90;;;;;;5072475;28;20599;-72
2023/09/07 09:36:45;;;;;;;4.72;3.80;;;31.60;99.90;;;;;;5072086;28;20197;-72
2023/09/07 09:39:22;;;;;;;8.30;4.18;;;31.70;99.90;;;;;;5072212;28;20508;-72
2023/09/07 09:41:48;;;;;;;4.13;3.78;;;31.70;99.90;;;;;;5071189;28;20253;-73
2023/09/07 09:44:16;;;;;;;6.07;4.13;;;31.70;99.90;;;;;;5071304;28;20273;-72
2023/09/07 09:46:43;;;;;;;6.07;4.20;;;32.10;99.90;;;;;;5070921;28;20638;-72
2023/09/07 09:49:11;;;;;;;7.20;4.55;;;32.30;99.90;;;;;;5070150;28;20628;-72
2023/09/07 09:51:38;;;;;;;4.93;4.05;;;32.50;99.90;;;;;;5070763;28;20670;-72
2023/09/07 09:54:06;;;;;;;4.15;3.75;;;32.70;99.90;;;;;;5071164;28;20170;-72
2023/09/07 09:56:32;;;;;;;7.25;4.32;;;32.90;99.90;;;;;;5070904;28;20542;-72
2023/09/07 09:58:57;;;;;;;4.70;4.30;;;32.90;99.90;;;;;;5071207;28;20241;-72
2023/09/07 10:01:23;;;;;;;5.47;4.30;;;32.90;99.90;;;;;;5070907;28;20261;-73
2023/09/07 10:03:50;;;;;;;7.18;4.85;;;32.70;99.90;;;;;;5070996;28;20170;-72
2023/09/07 10:06:23;;;;;;;5.40;4.28;;;32.70;99.90;;;;;;5071030;28;20170;-72
2023/09/07 10:09:10;;;;;;;4.88;4.45;;;32.80;99.90;;;;;;5070928;28;20257;-72
2023/09/07 10:11:38;;;;;;;5.40;4.38;;;32.80;99.90;;;;;;5070747;28;20658;-71
2023/09/07 10:14:06;;;;;;;4.55;4.15;;;32.80;99.90;;;;;;5071041;28;20244;-71
2023/09/07 10:16:52;;;;;;;4.50;4.03;;;32.70;99.90;;;;;;5070819;28;20194;-71
2023/09/07 10:19:20;;;;;;;4.13;3.72;;;32.70;99.90;;;;;;5070996;28;20173;-72
2023/09/07 10:21:47;;;;;;;4.03;3.67;;;32.60;99.90;;;;;;5070822;28;20257;-72
2023/09/07 10:24:27;;;;;;;7.75;5.40;;;32.40;99.90;;;;;;5070865;28;20167;-71
2023/09/07 10:27:22;;;;;;;4.55;3.90;;;32.10;99.90;;;;;;5070868;28;20197;-71
2023/09/07 10:29:54;;;;;;;5.40;3.83;;;31.90;99.90;;;;;;5070164;28;20264;-71
2023/09/07 10:32:20;;;;;;;5.57;4.18;;;31.80;99.90;;;;;;5070420;28;20201;-71
2023/09/07 10:34:46;;;;;;;6.07;5.55;;;31.70;99.90;;;;;;5070662;28;20206;-70
2023/09/07 10:37:13;;;;;;;5.85;5.30;;;31.50;99.90;;;;;;5071225;28;20194;-72
2023/09/07 10:39:39;;;;;;;6.63;6.03;;;31.10;99.90;;;;;;5070869;28;20644;-70
2023/09/07 10:42:05;;;;;;;7.28;6.70;;;31.00;99.90;;;;;;5070311;28;20223;-70
2023/09/07 10:44:31;;;;;;;7.93;7.22;;;31.10;99.90;;;;;;5072705;28;20178;-70
2023/09/07 10:46:57;;;;;;;5.78;5.38;;;31.30;99.90;;;;;;5074055;28;20737;-71
2023/09/07 10:49:24;;;;;;;9.38;7.75;;;31.40;99.90;;;;;;5073266;28;20687;-71
2023/09/07 10:51:50;;;;;;;10.32;9.48;;;31.50;99.90;;;;;;5073801;28;20174;-71
2023/09/07 10:54:23;;;;;;;7.38;6.88;;;31.50;99.90;;;;;;5074187;28;20577;-70
2023/09/07 10:56:51;;;;;;;7.03;6.53;;;31.40;99.90;;;;;;5074479;28;20268;-74
2023/09/07 10:59:17;;;;;;;6.78;6.38;;;31.40;99.90;;;;;;5074141;28;20224;-71
2023/09/07 11:01:48;;;;;;;5.20;4.43;;;31.30;99.90;;;;;;5072352;28;20575;-71
2023/09/07 11:04:14;;;;;;;5.13;4.70;;;31.30;99.90;;;;;;5073914;28;20260;-71
2023/09/07 11:06:41;;;;;;;5.03;3.60;;;31.20;99.90;;;;;;5072367;28;20210;-71
2023/09/07 11:09:10;;;;;;;6.25;3.80;;;31.20;99.90;;;;;;5074132;28;20635;-71
2023/09/07 11:11:36;;;;;;;4.55;3.83;;;31.20;99.90;;;;;;5073897;28;20735;-70
2023/09/07 11:14:05;;;;;;;4.38;4.00;;;31.00;99.90;;;;;;5073840;28;20249;-71
2023/09/07 11:16:33;;;;;;;5.15;4.00;;;31.00;99.90;;;;;;5073614;28;20166;-70
2023/09/07 11:19:06;;;;;;;4.47;3.92;;;30.90;99.90;;;;;;5074084;28;20677;-71
2023/09/07 11:21:34;;;;;;;5.13;4.15;;;30.70;99.90;;;;;;5073585;28;20174;-71
2023/09/07 11:24:00;;;;;;;4.78;4.38;;;30.50;99.90;;;;;;5072292;28;20166;-69
2023/09/07 11:26:26;;;;;;;5.10;4.07;;;30.50;99.90;;;;;;5073499;28;20263;-69
2023/09/07 11:28:52;;;;;;;5.18;4.18;;;30.50;99.90;;;;;;5073596;28;20193;-70
2023/09/07 11:31:21;;;;;;;4.28;3.70;;;30.40;99.90;;;;;;5072046;28;20197;-70
2023/09/07 11:33:48;;;;;;;5.38;4.35;;;30.50;99.90;;;;;;5073315;28;20163;-70
2023/09/07 11:36:14;;;;;;;4.53;4.13;;;30.60;99.90;;;;;;5073784;28;20197;-70
2023/09/07 11:38:43;;;;;;;4.78;3.88;;;30.60;99.90;;;;;;5073123;28;20222;-70
2023/09/07 11:41:09;;;;;;;4.30;3.97;;;30.70;99.90;;;;;;5073373;28;20181;-71
2023/09/07 11:43:34;;;;;;;4.78;4.38;;;30.80;99.90;;;;;;5073218;28;20220;-70
2023/09/07 11:46:01;;;;;;;5.18;4.20;;;30.70;99.90;;;;;;5073453;28;20174;-70
2023/09/07 11:48:28;;;;;;;4.60;4.03;;;30.80;99.90;;;;;;5071889;28;20613;-70
2023/09/07 11:50:54;;;;;;;4.57;3.55;;;30.80;99.90;;;;;;5073235;28;20166;-70
2023/09/07 11:53:19;;;;;;;4.60;4.20;;;31.10;99.90;;;;;;5072906;28;20173;-70
2023/09/07 11:55:45;;;;;;;5.28;3.72;;;31.40;99.90;;;;;;5073171;28;20648;-70
2023/09/07 11:58:10;;;;;;;4.38;3.97;;;31.40;99.90;;;;;;5073076;28;20634;-70
2023/09/07 12:00:36;;;;;;;5.05;4.07;;;31.60;99.90;;;;;;5072975;28;20170;-71
2023/09/07 12:03:02;;;;;;;4.93;4.43;;;31.80;99.90;;;;;;5072802;28;20185;-71
2023/09/07 12:05:28;;;;;;;7.00;3.90;;;31.80;99.90;;;;;;5073106;28;20166;-71
2023/09/07 12:07:53;;;;;;;5.72;4.65;;;31.90;99.90;;;;;;5072827;28;20248;-69
2023/09/07 12:10:19;;;;;;;6.47;4.78;;;31.80;99.90;;;;;;5071745;28;20212;-72
2023/09/07 12:12:45;;;;;;;4.72;4.20;;;31.90;99.90;;;;;;5072202;28;20170;-70
2023/09/07 12:15:11;;;;;;;5.38;4.97;;;31.90;99.90;;;;;;5072745;28;20181;-71
2023/09/07 12:17:37;;;;;;;6.82;5.68;;;31.90;99.90;;;;;;5072388;28;20679;-70
2023/09/07 12:20:04;;;;;;;4.93;4.43;;;31.80;99.90;;;;;;5072657;28;20238;-70
2023/09/07 12:22:30;;;;;;;6.70;5.47;;;31.90;99.90;;;;;;5072017;28;20177;-70
2023/09/07 12:24:56;;;;;;;5.32;4.88;;;31.80;99.90;;;;;;5072356;28;20639;-71
2023/09/07 12:27:22;;;;;;;5.07;4.68;;;31.90;99.90;;;;;;5072313;28;20198;-70
2023/09/07 12:29:48;;;;;;;6.78;6.28;;;32.10;99.90;;;;;;5072230;28;20165;-71
2023/09/07 12:32:14;;;;;;;9.20;8.57;;;32.10;99.90;;;;;;5070636;28;20174;-70
2023/09/07 12:34:40;;;;;;;7.45;6.85;;;32.20;99.90;;;;;;5072052;28;20170;-72
2023/09/07 12:37:05;;;;;;;9.38;8.77;;;32.30;99.90;;;;;;5072077;28;20193;-70
2023/09/07 12:39:32;;;;;;;6.75;6.22;;;32.40;99.90;;;;;;5072172;28;20170;-71
2023/09/07 12:41:57;;;;;;;7.55;7.05;;;32.30;99.90;;;;;;5071655;28;20651;-71